createdAt,value
2018-12-02T00:01:50.052Z,10.10
2018-12-02T00:06:53.831Z,6.90
2018-12-02T00:11:57.520Z,8.70
2018-12-02T00:17:01.301Z,9.13
2018-12-02T00:22:05.336Z,10.63
2018-12-02T00:27:09.061Z,9.00
2018-12-02T00:43:08.240Z,12.40
2018-12-02T00:48:11.908Z,2.77
2018-12-02T00:53:15.727Z,3.63
2018-12-02T00:58:19.488Z,6.23
2018-12-02T01:03:24.228Z,8.33
2018-12-02T01:08:27.898Z,8.87
2018-12-02T01:13:31.533Z,9.33
2018-12-02T01:18:35.219Z,6.60
2018-12-02T01:23:38.857Z,19.83
2018-12-02T01:28:42.503Z,19.33
2018-12-02T01:33:46.150Z,12.70
2018-12-02T01:38:49.917Z,9.57
2018-12-02T01:43:53.547Z,5.37
2018-12-02T01:48:57.079Z,4.20
2018-12-02T01:54:00.757Z,6.20
2018-12-02T01:59:04.492Z,9.53
2018-12-02T02:04:08.193Z,16.70
2018-12-02T02:09:11.889Z,12.60
2018-12-02T02:14:15.452Z,10.63
2018-12-02T02:19:19.144Z,9.67
2018-12-02T02:24:22.653Z,4.17
2018-12-02T02:29:26.229Z,5.37
2018-12-02T02:34:29.909Z,6.30
2018-12-02T02:39:33.745Z,6.90
2018-12-02T02:44:37.358Z,9.40
2018-12-02T02:49:41.013Z,29.40
2018-12-02T02:54:44.683Z,31.97
2018-12-02T03:05:21.988Z,7.63
2018-12-02T03:10:25.593Z,7.50
2018-12-02T03:15:29.239Z,6.43
2018-12-02T03:20:32.864Z,9.33
2018-12-02T03:25:36.614Z,6.50
2018-12-02T03:30:40.331Z,7.37
2018-12-02T03:35:43.929Z,7.37
2018-12-02T03:46:09.724Z,8.13
2018-12-02T03:51:13.537Z,9.90
2018-12-02T03:56:17.505Z,7.63
2018-12-02T04:01:21.548Z,6.73
2018-12-02T04:06:25.758Z,4.17
2018-12-02T04:11:29.719Z,9.10
2018-12-02T04:16:33.540Z,6.20
2018-12-02T04:21:41.124Z,5.17
2018-12-02T04:26:45.213Z,5.20
2018-12-02T04:31:49.160Z,6.70
2018-12-02T04:36:52.954Z,7.23
2018-12-02T04:41:57.221Z,5.57
2018-12-02T04:47:01.174Z,8.57
2018-12-02T04:52:05.119Z,9.43
2018-12-02T04:57:08.849Z,7.00
2018-12-02T05:02:12.835Z,7.13
2018-12-02T05:07:16.749Z,6.73
2018-12-02T05:12:20.514Z,9.07
2018-12-02T05:17:24.179Z,10.83
2018-12-02T05:22:27.929Z,15.03
2018-12-02T05:27:31.579Z,11.00
2018-12-02T05:32:35.629Z,12.97
2018-12-02T05:37:39.578Z,14.33
2018-12-02T05:42:43.854Z,16.13
2018-12-02T05:47:47.805Z,21.33
2018-12-02T05:52:53.808Z,18.17
2018-12-02T05:57:57.613Z,16.47
2018-12-02T06:03:01.758Z,16.40
2018-12-02T06:08:06.336Z,15.93
2018-12-02T06:13:10.063Z,16.10
2018-12-02T06:18:13.819Z,17.07
2018-12-02T06:23:17.556Z,13.27
2018-12-02T06:28:21.296Z,9.40
2018-12-02T06:33:25.090Z,12.27
2018-12-02T06:38:28.774Z,13.90
2018-12-02T06:43:32.725Z,13.63
2018-12-02T06:48:36.489Z,15.93
2018-12-02T06:53:40.939Z,16.23
2018-12-02T06:58:52.795Z,14.50
2018-12-02T07:04:09.165Z,17.73
2018-12-02T07:09:12.944Z,15.47
2018-12-02T07:14:16.679Z,17.13
2018-12-02T07:19:26.476Z,12.17
2018-12-02T07:24:31.809Z,16.63
2018-12-02T07:29:35.424Z,12.47
2018-12-02T07:34:39.164Z,19.07
2018-12-02T07:39:51.594Z,15.33
2018-12-02T07:44:55.693Z,16.10
2018-12-02T07:49:59.420Z,14.90
2018-12-02T07:55:03.319Z,10.97
2018-12-02T08:00:13.813Z,11.47
2018-12-02T08:05:18.385Z,10.07
2018-12-02T08:10:22.420Z,9.47
2018-12-02T08:15:26.205Z,10.80
2018-12-02T08:20:30.134Z,11.07
2018-12-02T08:25:34.048Z,10.50
2018-12-02T08:30:37.771Z,12.30
2018-12-02T08:35:41.664Z,11.47
2018-12-02T08:40:45.686Z,10.93
2018-12-02T08:45:49.619Z,12.30
2018-12-02T08:50:53.378Z,11.43
2018-12-02T08:55:57.093Z,12.90
2018-12-02T09:01:00.893Z,11.07
2018-12-02T09:06:04.811Z,11.93
2018-12-02T09:11:08.958Z,13.67
2018-12-02T09:16:13.068Z,10.50
2018-12-02T09:21:16.963Z,13.67
2018-12-02T09:26:20.948Z,13.90
2018-12-02T09:31:24.818Z,10.10
2018-12-02T09:36:28.663Z,13.57
2018-12-02T09:41:32.543Z,13.37
2018-12-02T09:46:36.544Z,12.57
2018-12-02T09:57:02.137Z,11.00
2018-12-02T10:02:06.072Z,9.97
2018-12-02T10:07:09.818Z,3.63
2018-12-02T10:12:13.481Z,3.03
2018-12-02T10:17:17.197Z,3.33
2018-12-02T10:22:23.867Z,2.57
2018-12-02T10:27:27.592Z,2.90
2018-12-02T10:32:31.521Z,3.43
2018-12-02T10:37:35.186Z,3.50
2018-12-02T10:48:13.909Z,40.93
2018-12-02T10:53:19.666Z,12.27
2018-12-02T10:58:25.985Z,16.20
2018-12-02T11:03:29.965Z,20.20
2018-12-02T11:08:33.844Z,21.30
2018-12-02T11:13:37.624Z,14.23
2018-12-02T11:18:41.606Z,12.17
2018-12-02T11:23:45.484Z,10.50
2018-12-02T11:28:50.170Z,8.40
2018-12-02T11:33:54.345Z,8.13
2018-12-02T11:38:58.136Z,9.23
2018-12-02T11:44:02.025Z,14.73
2018-12-02T12:00:25.131Z,15.27
2018-12-02T12:05:29.154Z,13.93
2018-12-02T12:15:54.409Z,15.60
2018-12-02T12:20:59.095Z,12.67
2018-12-02T12:26:02.742Z,15.33
2018-12-02T12:31:06.519Z,14.27
2018-12-02T12:36:10.235Z,12.60
2018-12-02T12:41:13.910Z,13.20
2018-12-02T12:46:17.570Z,9.67
2018-12-02T12:51:21.299Z,9.60
2018-12-02T12:56:25.001Z,17.57
2018-12-02T13:01:28.850Z,16.70
2018-12-02T13:06:32.525Z,18.57
2018-12-02T13:11:36.375Z,19.37
2018-12-02T13:16:40.073Z,16.20
2018-12-02T13:21:44.753Z,15.53
2018-12-02T13:26:48.393Z,18.23
2018-12-02T13:31:52.143Z,18.37
2018-12-02T13:36:55.663Z,15.30
2018-12-02T13:41:59.412Z,20.50
2018-12-02T13:47:03.187Z,19.90
2018-12-02T13:52:06.906Z,15.67
2018-12-02T13:57:10.567Z,20.17
2018-12-02T14:02:14.678Z,12.80
2018-12-02T14:07:18.464Z,10.90
2018-12-02T14:12:22.092Z,10.07
2018-12-02T14:17:26.986Z,12.43
2018-12-02T14:22:30.717Z,16.60
2018-12-02T14:27:34.351Z,16.37
2018-12-02T14:32:38.047Z,20.40
2018-12-02T14:37:41.958Z,19.67
2018-12-02T14:42:45.773Z,18.87
2018-12-02T14:47:49.507Z,24.47
2018-12-02T14:52:53.197Z,22.37
2018-12-02T14:57:56.930Z,21.80
2018-12-02T15:03:00.576Z,24.07
2018-12-02T15:08:04.357Z,21.13
2018-12-02T15:13:07.837Z,27.20
2018-12-02T15:18:11.502Z,27.13
2018-12-02T15:23:15.477Z,21.53
2018-12-02T15:28:19.161Z,18.30
2018-12-02T15:33:23.107Z,14.13
2018-12-02T15:38:26.697Z,13.27
2018-12-02T15:59:59.228Z,22.10
2018-12-02T16:05:04.968Z,22.80
2018-12-02T16:10:10.529Z,20.43
2018-12-02T16:15:15.710Z,24.07
2018-12-02T16:20:24.486Z,23.70
2018-12-02T16:31:02.098Z,18.17
2018-12-02T16:36:06.523Z,22.03
2018-12-02T16:46:50.103Z,20.17
2018-12-02T16:51:53.907Z,24.37
2018-12-02T16:56:58.168Z,21.33
2018-12-02T17:02:05.670Z,15.77
2018-12-02T17:07:09.723Z,16.77
2018-12-02T17:12:13.513Z,13.60
2018-12-02T17:17:17.273Z,17.13
2018-12-02T17:22:21.451Z,13.13
2018-12-02T17:27:25.610Z,15.20
2018-12-02T17:32:31.154Z,26.63
2018-12-02T17:37:36.373Z,20.60
2018-12-02T17:42:40.214Z,21.13
2018-12-02T17:47:45.814Z,21.77
2018-12-02T17:52:50.138Z,23.93
2018-12-02T17:57:54.274Z,24.13
2018-12-02T18:03:00.114Z,24.33
2018-12-02T18:08:03.893Z,27.10
2018-12-02T18:13:07.900Z,25.07
2018-12-02T18:18:11.856Z,27.70
2018-12-02T18:23:17.898Z,27.33
2018-12-02T18:28:21.673Z,23.97
2018-12-02T18:44:28.114Z,27.30
2018-12-02T18:49:32.174Z,24.67
2018-12-02T18:54:36.013Z,26.87
2018-12-02T18:59:39.874Z,30.27
2018-12-02T19:04:43.758Z,27.83
2018-12-02T19:15:27.613Z,28.63
2018-12-02T19:20:31.714Z,27.47
2018-12-02T19:25:35.486Z,31.40
2018-12-02T19:30:39.376Z,31.63
2018-12-02T19:35:43.067Z,29.37
2018-12-02T19:40:46.895Z,27.67
2018-12-02T19:45:51.773Z,28.33
2018-12-02T19:50:55.474Z,29.27
2018-12-02T19:55:59.154Z,28.73
2018-12-02T20:01:03.774Z,26.90
2018-12-02T20:06:07.846Z,28.97
2018-12-02T20:11:11.674Z,26.50
2018-12-02T20:16:19.314Z,27.23
2018-12-02T20:21:24.362Z,30.30
2018-12-02T20:26:28.494Z,28.73
2018-12-02T20:31:32.373Z,28.93
2018-12-02T20:36:36.433Z,27.83
2018-12-02T20:41:40.276Z,29.00
2018-12-02T20:46:44.074Z,27.80
2018-12-02T20:51:47.794Z,27.20
2018-12-02T20:56:51.533Z,24.87
2018-12-02T21:01:55.394Z,26.07
2018-12-02T21:06:59.174Z,25.57
2018-12-02T21:12:02.814Z,25.83
2018-12-02T21:17:06.694Z,26.47
2018-12-02T21:22:10.493Z,31.57
2018-12-02T21:27:14.313Z,28.13
2018-12-02T21:32:22.488Z,27.57
2018-12-02T21:37:22.034Z,28.97
2018-12-02T21:42:25.674Z,26.20
2018-12-02T21:47:29.413Z,26.10
2018-12-02T21:52:33.153Z,30.17
2018-12-02T21:57:37.232Z,29.27
2018-12-02T22:02:41.033Z,30.93
2018-12-02T22:07:45.033Z,29.20
2018-12-02T22:12:48.814Z,32.77
2018-12-02T22:17:52.554Z,35.10
2018-12-02T22:22:56.413Z,34.20
2018-12-02T22:28:00.125Z,33.87
2018-12-02T22:33:03.914Z,32.63
2018-12-02T22:38:08.273Z,36.17
2018-12-02T22:43:11.908Z,35.63
2018-12-02T22:48:15.653Z,35.73
2018-12-02T22:53:19.413Z,35.90
2018-12-02T22:58:23.092Z,33.93
2018-12-02T23:03:26.933Z,36.47
2018-12-02T23:08:30.733Z,35.90
2018-12-02T23:13:34.552Z,41.23
2018-12-02T23:18:38.412Z,37.20
2018-12-02T23:23:42.232Z,39.80
2018-12-02T23:28:45.992Z,38.60
2018-12-02T23:33:49.952Z,42.73
2018-12-02T23:38:53.873Z,39.93
2018-12-02T23:43:57.772Z,38.17
2018-12-02T23:49:01.614Z,38.97
2018-12-02T23:54:05.992Z,44.97
2018-12-02T23:59:09.772Z,41.40
